sensor_id;sensor_type;location;lat;lon;timestamp;pressure;altitude;pressure_sealevel;temperature;humidity
60319;BME280;46163;52.306;5.634;2023-12-07T00:01:18;101832.88;;;-0.81;100.00
60319;BME280;46163;52.306;5.634;2023-12-07T00:03:44;101856.34;;;-1.19;100.00
60319;BME280;46163;52.306;5.634;2023-12-07T00:06:09;101870.97;;;-3.79;95.14
60319;BME280;46163;52.306;5.634;2023-12-07T00:08:35;101870.56;;;-4.71;100.00
60319;BME280;46163;52.306;5.634;2023-12-07T00:11:00;101853.63;;;-3.63;100.00
60319;BME280;46163;52.306;5.634;2023-12-07T00:13:25;101863.31;;;-2.02;100.00
60319;BME280;46163;52.306;5.634;2023-12-07T00:15:51;101847.69;;;-1.61;100.00
60319;BME280;46163;52.306;5.634;2023-12-07T00:18:17;101853.03;;;-1.35;100.00
60319;BME280;46163;52.306;5.634;2023-12-07T00:20:43;101846.66;;;-1.31;100.00
60319;BME280;46163;52.306;5.634;2023-12-07T00:23:08;101857.34;;;-1.22;100.00
60319;BME280;46163;52.306;5.634;2023-12-07T00:25:34;101837.03;;;-1.31;100.00
60319;BME280;46163;52.306;5.634;2023-12-07T00:27:59;101850.28;;;-1.20;100.00
60319;BME280;46163;52.306;5.634;2023-12-07T00:30:25;101858.38;;;-1.24;100.00
60319;BME280;46163;52.306;5.634;2023-12-07T00:32:51;101855.72;;;-1.64;100.00
60319;BME280;46163;52.306;5.634;2023-12-07T00:35:16;101837.22;;;-1.74;100.00
60319;BME280;46163;52.306;5.634;2023-12-07T00:37:43;101862.50;;;-2.31;100.00
60319;BME280;46163;52.306;5.634;2023-12-07T00:40:09;101865.81;;;-4.97;98.04
60319;BME280;46163;52.306;5.634;2023-12-07T00:42:34;101857.97;;;-5.68;100.00
60319;BME280;46163;52.306;5.634;2023-12-07T00:45:00;101855.84;;;-4.37;100.00
60319;BME280;46163;52.306;5.634;2023-12-07T00:47:26;101840.34;;;-2.82;100.00
60319;BME280;46163;52.306;5.634;2023-12-07T00:49:51;101852.63;;;-2.12;100.00
60319;BME280;46163;52.306;5.634;2023-12-07T00:52:17;101839.38;;;-1.94;100.00
60319;BME280;46163;52.306;5.634;2023-12-07T00:54:43;101851.38;;;-1.78;100.00
60319;BME280;46163;52.306;5.634;2023-12-07T00:57:09;101853.50;;;-1.70;100.00
60319;BME280;46163;52.306;5.634;2023-12-07T00:59:35;101861.59;;;-1.60;100.00
60319;BME280;46163;52.306;5.634;2023-12-07T01:02:08;101867.66;;;-1.60;100.00
60319;BME280;46163;52.306;5.634;2023-12-07T01:04:34;101843.06;;;-1.70;100.00
60319;BME280;46163;52.306;5.634;2023-12-07T01:06:59;101858.41;;;-1.65;100.00
60319;BME280;46163;52.306;5.634;2023-12-07T01:09:25;101838.47;;;-2.22;100.00
60319;BME280;46163;52.306;5.634;2023-12-07T01:11:52;101864.25;;;-4.32;94.74
60319;BME280;46163;52.306;5.634;2023-12-07T01:14:18;101874.97;;;-5.80;100.00
60319;BME280;46163;52.306;5.634;2023-12-07T01:16:44;101870.75;;;-6.01;100.00
60319;BME280;46163;52.306;5.634;2023-12-07T01:19:10;101873.16;;;-4.71;100.00
60319;BME280;46163;52.306;5.634;2023-12-07T01:21:40;101852.88;;;-3.03;100.00
60319;BME280;46163;52.306;5.634;2023-12-07T01:24:06;101864.06;;;-2.43;100.00
60319;BME280;46163;52.306;5.634;2023-12-07T01:26:32;101865.00;;;-2.30;100.00
60319;BME280;46163;52.306;5.634;2023-12-07T01:28:57;101861.28;;;-2.11;100.00
60319;BME280;46163;52.306;5.634;2023-12-07T01:31:23;101861.06;;;-1.94;100.00
60319;BME280;46163;52.306;5.634;2023-12-07T01:33:49;101862.84;;;-1.80;100.00
60319;BME280;46163;52.306;5.634;2023-12-07T01:36:14;101872.81;;;-1.87;100.00
60319;BME280;46163;52.306;5.634;2023-12-07T01:38:40;101862.38;;;-2.01;100.00
60319;BME280;46163;52.306;5.634;2023-12-07T01:41:05;101863.16;;;-1.99;100.00
60319;BME280;46163;52.306;5.634;2023-12-07T01:43:31;101864.81;;;-3.31;100.00
60319;BME280;46163;52.306;5.634;2023-12-07T01:45:57;101875.50;;;-5.18;96.42
60319;BME280;46163;52.306;5.634;2023-12-07T01:48:25;101879.09;;;-6.13;100.00
60319;BME280;46163;52.306;5.634;2023-12-07T01:50:55;101878.09;;;-5.90;100.00
60319;BME280;46163;52.306;5.634;2023-12-07T01:53:23;101881.69;;;-4.34;100.00
60319;BME280;46163;52.306;5.634;2023-12-07T01:55:49;101880.47;;;-2.85;100.00
60319;BME280;46163;52.306;5.634;2023-12-07T01:58:17;101882.59;;;-2.47;100.00
60319;BME280;46163;52.306;5.634;2023-12-07T02:00:43;101881.94;;;-2.37;100.00
60319;BME280;46163;52.306;5.634;2023-12-07T02:03:10;101873.75;;;-2.31;100.00
60319;BME280;46163;52.306;5.634;2023-12-07T02:05:36;101869.47;;;-2.17;100.00
60319;BME280;46163;52.306;5.634;2023-12-07T02:08:03;101865.56;;;-2.10;100.00
60319;BME280;46163;52.306;5.634;2023-12-07T02:10:28;101865.19;;;-2.04;100.00
60319;BME280;46163;52.306;5.634;2023-12-07T02:12:54;101858.03;;;-2.15;100.00
60319;BME280;46163;52.306;5.634;2023-12-07T02:15:20;101854.94;;;-2.50;100.00
60319;BME280;46163;52.306;5.634;2023-12-07T02:20:29;101877.09;;;-5.16;96.27
60319;BME280;46163;52.306;5.634;2023-12-07T02:23:00;101857.44;;;-6.31;100.00
60319;BME280;46163;52.306;5.634;2023-12-07T02:25:31;101867.53;;;-5.69;100.00
60319;BME280;46163;52.306;5.634;2023-12-07T02:27:56;101873.25;;;-3.89;100.00
60319;BME280;46163;52.306;5.634;2023-12-07T02:30:22;101869.84;;;-2.82;100.00
60319;BME280;46163;52.306;5.634;2023-12-07T02:32:48;101875.03;;;-2.52;100.00
60319;BME280;46163;52.306;5.634;2023-12-07T02:35:13;101867.22;;;-2.38;100.00
60319;BME280;46163;52.306;5.634;2023-12-07T02:37:48;101873.47;;;-2.26;100.00
60319;BME280;46163;52.306;5.634;2023-12-07T02:40:21;101868.63;;;-2.18;100.00
60319;BME280;46163;52.306;5.634;2023-12-07T02:42:48;101860.34;;;-2.10;100.00
60319;BME280;46163;52.306;5.634;2023-12-07T02:45:14;101853.34;;;-2.10;100.00
60319;BME280;46163;52.306;5.634;2023-12-07T02:47:40;101862.28;;;-2.57;100.00
60319;BME280;46163;52.306;5.634;2023-12-07T02:50:06;101858.38;;;-2.35;100.00
60319;BME280;46163;52.306;5.634;2023-12-07T02:52:33;101853.88;;;-2.62;100.00
60319;BME280;46163;52.306;5.634;2023-12-07T02:54:59;101859.38;;;-5.25;95.11
60319;BME280;46163;52.306;5.634;2023-12-07T02:57:25;101860.88;;;-6.31;100.00
60319;BME280;46163;52.306;5.634;2023-12-07T02:59:50;101865.25;;;-5.57;100.00
60319;BME280;46163;52.306;5.634;2023-12-07T03:02:15;101847.16;;;-3.87;100.00
60319;BME280;46163;52.306;5.634;2023-12-07T03:04:41;101854.66;;;-2.90;100.00
60319;BME280;46163;52.306;5.634;2023-12-07T03:07:06;101853.63;;;-2.57;100.00
60319;BME280;46163;52.306;5.634;2023-12-07T03:09:32;101859.31;;;-2.36;100.00
60319;BME280;46163;52.306;5.634;2023-12-07T03:11:57;101863.03;;;-2.26;100.00
60319;BME280;46163;52.306;5.634;2023-12-07T03:14:22;101857.19;;;-2.15;100.00
60319;BME280;46163;52.306;5.634;2023-12-07T03:16:48;101857.84;;;-2.12;100.00
60319;BME280;46163;52.306;5.634;2023-12-07T03:19:14;101852.13;;;-2.18;100.00
60319;BME280;46163;52.306;5.634;2023-12-07T03:21:40;101865.94;;;-2.16;100.00
60319;BME280;46163;52.306;5.634;2023-12-07T03:24:07;101855.22;;;-2.12;100.00
60319;BME280;46163;52.306;5.634;2023-12-07T03:26:36;101862.81;;;-2.66;100.00
60319;BME280;46163;52.306;5.634;2023-12-07T03:29:02;101865.31;;;-5.40;94.48
60319;BME280;46163;52.306;5.634;2023-12-07T03:31:28;101872.72;;;-6.45;100.00
60319;BME280;46163;52.306;5.634;2023-12-07T03:33:55;101854.34;;;-5.64;100.00
60319;BME280;46163;52.306;5.634;2023-12-07T03:36:20;101880.69;;;-3.83;100.00
60319;BME280;46163;52.306;5.634;2023-12-07T03:38:47;101879.38;;;-2.97;100.00
60319;BME280;46163;52.306;5.634;2023-12-07T03:41:13;101870.34;;;-2.75;100.00
60319;BME280;46163;52.306;5.634;2023-12-07T03:43:38;101877.72;;;-2.53;100.00
60319;BME280;46163;52.306;5.634;2023-12-07T03:46:05;101876.91;;;-2.40;100.00
60319;BME280;46163;52.306;5.634;2023-12-07T03:48:31;101866.50;;;-2.40;100.00
60319;BME280;46163;52.306;5.634;2023-12-07T03:50:56;101882.63;;;-2.33;100.00
60319;BME280;46163;52.306;5.634;2023-12-07T03:53:22;101888.38;;;-2.28;100.00
60319;BME280;46163;52.306;5.634;2023-12-07T03:55:47;101876.25;;;-2.43;100.00
60319;BME280;46163;52.306;5.634;2023-12-07T03:58:13;101878.41;;;-2.36;100.00
60319;BME280;46163;52.306;5.634;2023-12-07T04:00:39;101887.28;;;-2.24;100.00
60319;BME280;46163;52.306;5.634;2023-12-07T04:03:05;101888.34;;;-4.98;91.76
60319;BME280;46163;52.306;5.634;2023-12-07T04:05:31;101891.69;;;-6.45;98.90
60319;BME280;46163;52.306;5.634;2023-12-07T04:07:57;101895.00;;;-6.82;100.00
60319;BME280;46163;52.306;5.634;2023-12-07T04:10:22;101882.09;;;-5.66;100.00
60319;BME280;46163;52.306;5.634;2023-12-07T04:12:48;101883.56;;;-3.72;100.00
60319;BME280;46163;52.306;5.634;2023-12-07T04:15:14;101881.56;;;-3.05;100.00
60319;BME280;46163;52.306;5.634;2023-12-07T04:17:39;101864.63;;;-2.82;100.00
60319;BME280;46163;52.306;5.634;2023-12-07T04:20:05;101873.53;;;-2.56;100.00
60319;BME280;46163;52.306;5.634;2023-12-07T04:22:31;101881.66;;;-2.46;100.00
60319;BME280;46163;52.306;5.634;2023-12-07T04:24:56;101871.41;;;-2.49;100.00
60319;BME280;46163;52.306;5.634;2023-12-07T04:27:22;101874.41;;;-2.41;100.00
60319;BME280;46163;52.306;5.634;2023-12-07T04:29:47;101865.06;;;-2.45;100.00
60319;BME280;46163;52.306;5.634;2023-12-07T04:32:13;101879.59;;;-2.56;100.00
60319;BME280;46163;52.306;5.634;2023-12-07T04:34:38;101860.13;;;-2.64;100.00
60319;BME280;46163;52.306;5.634;2023-12-07T04:37:04;101876.44;;;-2.91;100.00
60319;BME280;46163;52.306;5.634;2023-12-07T04:39:30;101872.94;;;-4.49;94.06
60319;BME280;46163;52.306;5.634;2023-12-07T04:41:55;101887.09;;;-5.99;96.05
60319;BME280;46163;52.306;5.634;2023-12-07T04:44:21;101879.47;;;-6.82;100.00
60319;BME280;46163;52.306;5.634;2023-12-07T04:46:46;101871.66;;;-5.83;100.00
60319;BME280;46163;52.306;5.634;2023-12-07T04:49:12;101876.47;;;-4.01;100.00
60319;BME280;46163;52.306;5.634;2023-12-07T04:51:37;101872.22;;;-3.23;100.00
60319;BME280;46163;52.306;5.634;2023-12-07T04:54:03;101880.63;;;-2.88;100.00
60319;BME280;46163;52.306;5.634;2023-12-07T04:56:29;101869.75;;;-2.80;100.00
60319;BME280;46163;52.306;5.634;2023-12-07T04:58:54;101873.34;;;-2.67;100.00
60319;BME280;46163;52.306;5.634;2023-12-07T05:01:20;101867.69;;;-2.60;100.00
60319;BME280;46163;52.306;5.634;2023-12-07T05:03:45;101872.25;;;-2.49;100.00
60319;BME280;46163;52.306;5.634;2023-12-07T05:06:11;101876.72;;;-2.37;100.00
60319;BME280;46163;52.306;5.634;2023-12-07T05:08:38;101864.91;;;-2.42;100.00
60319;BME280;46163;52.306;5.634;2023-12-07T05:11:05;101873.84;;;-2.32;100.00
60319;BME280;46163;52.306;5.634;2023-12-07T05:13:32;101877.34;;;-4.34;93.72
60319;BME280;46163;52.306;5.634;2023-12-07T05:15:59;101888.97;;;-7.03;96.61
60319;BME280;46163;52.306;5.634;2023-12-07T05:18:25;101882.50;;;-6.72;100.00
60319;BME280;46163;52.306;5.634;2023-12-07T05:20:50;101877.22;;;-5.36;100.00
60319;BME280;46163;52.306;5.634;2023-12-07T05:23:16;101869.66;;;-3.55;100.00
60319;BME280;46163;52.306;5.634;2023-12-07T05:25:42;101868.94;;;-3.11;100.00
60319;BME280;46163;52.306;5.634;2023-12-07T05:28:08;101848.31;;;-3.00;100.00
60319;BME280;46163;52.306;5.634;2023-12-07T05:30:34;101852.81;;;-2.88;100.00
60319;BME280;46163;52.306;5.634;2023-12-07T05:33:01;101866.44;;;-2.68;100.00
60319;BME280;46163;52.306;5.634;2023-12-07T05:35:27;101857.25;;;-2.60;100.00
60319;BME280;46163;52.306;5.634;2023-12-07T05:37:52;101851.75;;;-2.55;100.00
60319;BME280;46163;52.306;5.634;2023-12-07T05:40:17;101861.34;;;-2.56;100.00
60319;BME280;46163;52.306;5.634;2023-12-07T05:42:44;101863.50;;;-2.48;100.00
60319;BME280;46163;52.306;5.634;2023-12-07T05:45:10;101863.19;;;-3.79;100.00
60319;BME280;46163;52.306;5.634;2023-12-07T05:47:35;101850.47;;;-7.10;92.97
60319;BME280;46163;52.306;5.634;2023-12-07T05:50:02;101866.69;;;-7.07;100.00
60319;BME280;46163;52.306;5.634;2023-12-07T05:52:29;101860.91;;;-5.57;100.00
60319;BME280;46163;52.306;5.634;2023-12-07T05:54:54;101840.28;;;-3.73;100.00
60319;BME280;46163;52.306;5.634;2023-12-07T05:57:44;101839.88;;;-3.19;100.00
60319;BME280;46163;52.306;5.634;2023-12-07T06:00:10;101827.06;;;-3.08;100.00
60319;BME280;46163;52.306;5.634;2023-12-07T06:02:36;101841.19;;;-2.82;100.00
60319;BME280;46163;52.306;5.634;2023-12-07T06:05:02;101838.34;;;-2.77;100.00
60319;BME280;46163;52.306;5.634;2023-12-07T06:07:31;101854.06;;;-2.65;100.00
60319;BME280;46163;52.306;5.634;2023-12-07T06:12:22;101851.91;;;-2.72;100.00
60319;BME280;46163;52.306;5.634;2023-12-07T06:14:48;101836.19;;;-2.71;100.00
60319;BME280;46163;52.306;5.634;2023-12-07T06:17:14;101852.66;;;-2.70;100.00
60319;BME280;46163;52.306;5.634;2023-12-07T06:19:39;101858.91;;;-5.33;91.83
60319;BME280;46163;52.306;5.634;2023-12-07T06:22:04;101874.97;;;-6.99;100.00
60319;BME280;46163;52.306;5.634;2023-12-07T06:24:31;101860.72;;;-5.52;100.00
60319;BME280;46163;52.306;5.634;2023-12-07T06:26:58;101849.44;;;-3.81;100.00
60319;BME280;46163;52.306;5.634;2023-12-07T06:29:23;101859.56;;;-3.29;100.00
60319;BME280;46163;52.306;5.634;2023-12-07T06:31:49;101857.59;;;-3.10;100.00
60319;BME280;46163;52.306;5.634;2023-12-07T06:34:14;101857.53;;;-2.94;100.00
60319;BME280;46163;52.306;5.634;2023-12-07T06:36:39;101859.53;;;-2.83;100.00
60319;BME280;46163;52.306;5.634;2023-12-07T06:39:05;101868.09;;;-2.81;100.00
60319;BME280;46163;52.306;5.634;2023-12-07T06:41:30;101864.28;;;-2.76;100.00
60319;BME280;46163;52.306;5.634;2023-12-07T06:43:55;101872.94;;;-2.75;100.00
60319;BME280;46163;52.306;5.634;2023-12-07T06:46:21;101870.50;;;-2.78;100.00
60319;BME280;46163;52.306;5.634;2023-12-07T06:48:46;101879.63;;;-2.71;100.00
60319;BME280;46163;52.306;5.634;2023-12-07T06:51:11;101881.09;;;-5.08;91.38
60319;BME280;46163;52.306;5.634;2023-12-07T06:53:39;101888.25;;;-7.74;96.09
60319;BME280;46163;52.306;5.634;2023-12-07T06:56:07;101881.50;;;-7.54;100.00
60319;BME280;46163;52.306;5.634;2023-12-07T06:58:32;101866.13;;;-6.13;100.00
60319;BME280;46163;52.306;5.634;2023-12-07T07:00:57;101866.06;;;-4.17;100.00
60319;BME280;46163;52.306;5.634;2023-12-07T07:03:23;101835.56;;;-3.66;100.00
60319;BME280;46163;52.306;5.634;2023-12-07T07:05:49;101869.50;;;-3.22;100.00
60319;BME280;46163;52.306;5.634;2023-12-07T07:08:15;101844.16;;;-3.18;100.00
60319;BME280;46163;52.306;5.634;2023-12-07T07:10:40;101868.28;;;-2.85;100.00
60319;BME280;46163;52.306;5.634;2023-12-07T07:13:06;101877.81;;;-2.69;100.00
60319;BME280;46163;52.306;5.634;2023-12-07T07:15:34;101854.16;;;-2.66;100.00
60319;BME280;46163;52.306;5.634;2023-12-07T07:18:00;101872.16;;;-2.47;100.00
60319;BME280;46163;52.306;5.634;2023-12-07T07:20:26;101860.34;;;-2.39;100.00
60319;BME280;46163;52.306;5.634;2023-12-07T07:22:52;101865.84;;;-2.29;100.00
60319;BME280;46163;52.306;5.634;2023-12-07T07:25:17;101882.50;;;-6.32;90.82
60319;BME280;46163;52.306;5.634;2023-12-07T07:27:49;101879.53;;;-7.26;100.00
60319;BME280;46163;52.306;5.634;2023-12-07T07:30:14;101879.03;;;-5.19;100.00
60319;BME280;46163;52.306;5.634;2023-12-07T07:32:40;101878.44;;;-3.26;100.00
60319;BME280;46163;52.306;5.634;2023-12-07T07:35:06;101876.47;;;-2.76;100.00
60319;BME280;46163;52.306;5.634;2023-12-07T07:37:31;101886.31;;;-2.51;100.00
60319;BME280;46163;52.306;5.634;2023-12-07T07:39:57;101886.22;;;-2.36;100.00
60319;BME280;46163;52.306;5.634;2023-12-07T07:42:22;101894.53;;;-2.15;100.00
60319;BME280;46163;52.306;5.634;2023-12-07T07:44:48;101890.34;;;-2.03;100.00
60319;BME280;46163;52.306;5.634;2023-12-07T07:47:13;101888.09;;;-2.09;100.00
60319;BME280;46163;52.306;5.634;2023-12-07T07:49:38;101881.88;;;-2.07;100.00
60319;BME280;46163;52.306;5.634;2023-12-07T07:52:04;101871.50;;;-2.37;100.00
60319;BME280;46163;52.306;5.634;2023-12-07T07:54:30;101879.72;;;-5.16;90.17
60319;BME280;46163;52.306;5.634;2023-12-07T07:56:56;101873.28;;;-7.20;99.54
60319;BME280;46163;52.306;5.634;2023-12-07T07:59:22;101880.22;;;-5.62;100.00
60319;BME280;46163;52.306;5.634;2023-12-07T08:01:47;101876.81;;;-3.91;100.00
60319;BME280;46163;52.306;5.634;2023-12-07T08:04:13;101867.63;;;-2.74;100.00
60319;BME280;46163;52.306;5.634;2023-12-07T08:06:38;101852.50;;;-2.53;100.00
60319;BME280;46163;52.306;5.634;2023-12-07T08:09:04;101880.28;;;-2.23;100.00
60319;BME280;46163;52.306;5.634;2023-12-07T08:11:29;101872.84;;;-2.15;100.00
60319;BME280;46163;52.306;5.634;2023-12-07T08:13:55;101865.19;;;-2.04;100.00
60319;BME280;46163;52.306;5.634;2023-12-07T08:16:21;101875.44;;;-1.87;100.00
60319;BME280;46163;52.306;5.634;2023-12-07T08:18:47;101885.28;;;-1.78;100.00
60319;BME280;46163;52.306;5.634;2023-12-07T08:21:22;101875.41;;;-1.73;100.00
60319;BME280;46163;52.306;5.634;2023-12-07T08:23:48;101878.94;;;-3.66;94.15
60319;BME280;46163;52.306;5.634;2023-12-07T08:26:14;101897.16;;;-6.51;94.44
60319;BME280;46163;52.306;5.634;2023-12-07T08:28:40;101893.31;;;-6.83;100.00
60319;BME280;46163;52.306;5.634;2023-12-07T08:31:06;101869.59;;;-4.86;100.00
60319;BME280;46163;52.306;5.634;2023-12-07T08:33:32;101876.03;;;-2.99;100.00
60319;BME280;46163;52.306;5.634;2023-12-07T08:35:59;101872.81;;;-2.30;100.00
60319;BME280;46163;52.306;5.634;2023-12-07T08:38:25;101868.84;;;-2.07;100.00
60319;BME280;46163;52.306;5.634;2023-12-07T08:40:50;101853.81;;;-2.03;100.00
60319;BME280;46163;52.306;5.634;2023-12-07T08:43:18;101869.72;;;-1.79;100.00
60319;BME280;46163;52.306;5.634;2023-12-07T08:45:43;101857.69;;;-1.67;100.00
60319;BME280;46163;52.306;5.634;2023-12-07T08:48:09;101867.75;;;-1.61;100.00
60319;BME280;46163;52.306;5.634;2023-12-07T08:50:35;101878.22;;;-1.49;100.00
60319;BME280;46163;52.306;5.634;2023-12-07T08:53:00;101876.66;;;-3.25;90.58
60319;BME280;46163;52.306;5.634;2023-12-07T08:55:25;101883.13;;;-6.27;95.58
60319;BME280;46163;52.306;5.634;2023-12-07T08:57:53;101896.38;;;-5.76;100.00
60319;BME280;46163;52.306;5.634;2023-12-07T09:00:18;101893.34;;;-5.48;100.00
60319;BME280;46163;52.306;5.634;2023-12-07T09:02:49;101889.13;;;-4.11;100.00
60319;BME280;46163;52.306;5.634;2023-12-07T09:05:15;101885.94;;;-2.60;100.00
60319;BME280;46163;52.306;5.634;2023-12-07T09:07:40;101886.91;;;-2.04;100.00
60319;BME280;46163;52.306;5.634;2023-12-07T09:10:06;101863.41;;;-1.89;100.00
60319;BME280;46163;52.306;5.634;2023-12-07T09:12:32;101868.84;;;-1.65;100.00
60319;BME280;46163;52.306;5.634;2023-12-07T09:14:57;101861.00;;;-1.51;100.00
60319;BME280;46163;52.306;5.634;2023-12-07T09:17:22;101858.38;;;-1.51;100.00
60319;BME280;46163;52.306;5.634;2023-12-07T09:19:48;101867.47;;;-1.30;100.00
60319;BME280;46163;52.306;5.634;2023-12-07T09:22:13;101867.78;;;-1.22;100.00
60319;BME280;46163;52.306;5.634;2023-12-07T09:24:41;101857.44;;;-1.91;100.00
60319;BME280;46163;52.306;5.634;2023-12-07T09:27:07;101881.00;;;-5.24;96.28
60319;BME280;46163;52.306;5.634;2023-12-07T09:29:32;101882.22;;;-5.50;100.00
60319;BME280;46163;52.306;5.634;2023-12-07T09:31:58;101871.66;;;-4.24;100.00
60319;BME280;46163;52.306;5.634;2023-12-07T09:34:23;101869.16;;;-3.00;100.00
60319;BME280;46163;52.306;5.634;2023-12-07T09:36:49;101862.19;;;-1.84;100.00
60319;BME280;46163;52.306;5.634;2023-12-07T09:39:14;101868.31;;;-1.56;100.00
60319;BME280;46163;52.306;5.634;2023-12-07T09:41:41;101858.00;;;-1.45;100.00
60319;BME280;46163;52.306;5.634;2023-12-07T09:44:08;101848.75;;;-1.36;100.00
60319;BME280;46163;52.306;5.634;2023-12-07T09:46:34;101865.94;;;-1.20;100.00
60319;BME280;46163;52.306;5.634;2023-12-07T09:48:59;101871.28;;;-1.21;100.00
60319;BME280;46163;52.306;5.634;2023-12-07T09:51:26;101856.63;;;-1.51;100.00
60319;BME280;46163;52.306;5.634;2023-12-07T09:53:53;101864.31;;;-1.35;100.00
60319;BME280;46163;52.306;5.634;2023-12-07T09:56:19;101863.84;;;-3.76;88.89
60319;BME280;46163;52.306;5.634;2023-12-07T09:58:45;101872.97;;;-5.75;100.00
60319;BME280;46163;52.306;5.634;2023-12-07T10:01:10;101868.63;;;-5.74;100.00
60319;BME280;46163;52.306;5.634;2023-12-07T10:03:39;101840.22;;;-4.20;100.00
60319;BME280;46163;52.306;5.634;2023-12-07T10:06:04;101855.13;;;-2.39;100.00
60319;BME280;46163;52.306;5.634;2023-12-07T10:08:32;101848.53;;;-1.60;100.00
60319;BME280;46163;52.306;5.634;2023-12-07T10:11:08;101844.56;;;-1.39;100.00
60319;BME280;46163;52.306;5.634;2023-12-07T10:13:34;101847.66;;;-1.20;100.00
60319;BME280;46163;52.306;5.634;2023-12-07T10:16:14;101841.00;;;-1.11;100.00
60319;BME280;46163;52.306;5.634;2023-12-07T10:18:41;101850.84;;;-1.02;100.00
60319;BME280;46163;52.306;5.634;2023-12-07T10:21:08;101833.16;;;-1.11;100.00
60319;BME280;46163;52.306;5.634;2023-12-07T10:23:37;101842.59;;;-1.35;100.00
60319;BME280;46163;52.306;5.634;2023-12-07T10:26:05;101843.03;;;-2.11;100.00
60319;BME280;46163;52.306;5.634;2023-12-07T10:28:34;101827.41;;;-1.70;100.00
60319;BME280;46163;52.306;5.634;2023-12-07T10:31:01;101825.72;;;-1.44;100.00
60319;BME280;46163;52.306;5.634;2023-12-07T10:33:26;101824.75;;;-1.29;100.00
60319;BME280;46163;52.306;5.634;2023-12-07T10:35:52;101805.03;;;-1.07;100.00
60319;BME280;46163;52.306;5.634;2023-12-07T10:38:17;101810.91;;;-1.04;100.00
60319;BME280;46163;52.306;5.634;2023-12-07T10:40:46;101813.31;;;-0.88;100.00
60319;BME280;46163;52.306;5.634;2023-12-07T10:43:12;101788.13;;;-1.02;100.00
60319;BME280;46163;52.306;5.634;2023-12-07T10:45:38;101802.16;;;-1.03;100.00
60319;BME280;46163;52.306;5.634;2023-12-07T10:48:08;101807.59;;;-0.93;100.00
60319;BME280;46163;52.306;5.634;2023-12-07T10:50:42;101807.69;;;-0.82;100.00
60319;BME280;46163;52.306;5.634;2023-12-07T10:53:32;101776.88;;;-0.77;100.00
60319;BME280;46163;52.306;5.634;2023-12-07T10:56:01;101779.56;;;-0.66;100.00
60319;BME280;46163;52.306;5.634;2023-12-07T10:58:27;101778.22;;;-0.59;100.00
60319;BME280;46163;52.306;5.634;2023-12-07T11:00:53;101774.97;;;-0.75;100.00
60319;BME280;46163;52.306;5.634;2023-12-07T11:03:19;101765.97;;;-2.03;96.23
60319;BME280;46163;52.306;5.634;2023-12-07T11:05:48;101776.13;;;-3.58;96.28
60319;BME280;46163;52.306;5.634;2023-12-07T11:08:27;101774.47;;;-4.38;100.00
60319;BME280;46163;52.306;5.634;2023-12-07T11:13:35;101770.22;;;-4.07;100.00
60319;BME280;46163;52.306;5.634;2023-12-07T11:16:00;101781.06;;;-2.93;100.00
60319;BME280;46163;52.306;5.634;2023-12-07T11:18:27;101777.59;;;-1.94;100.00
60319;BME280;46163;52.306;5.634;2023-12-07T11:20:53;101773.06;;;-1.11;100.00
60319;BME280;46163;52.306;5.634;2023-12-07T11:23:20;101753.31;;;-0.90;100.00
60319;BME280;46163;52.306;5.634;2023-12-07T11:25:46;101759.72;;;-0.68;100.00
60319;BME280;46163;52.306;5.634;2023-12-07T11:28:13;101754.28;;;-0.65;100.00
60319;BME280;46163;52.306;5.634;2023-12-07T11:30:42;101758.66;;;-0.66;100.00
60319;BME280;46163;52.306;5.634;2023-12-07T11:33:08;101739.94;;;-0.72;100.00
60319;BME280;46163;52.306;5.634;2023-12-07T11:38:29;101752.09;;;-0.84;100.00
60319;BME280;46163;52.306;5.634;2023-12-07T11:40:55;101738.00;;;-2.99;100.00
60319;BME280;46163;52.306;5.634;2023-12-07T11:46:06;101753.28;;;-3.99;100.00
60319;BME280;46163;52.306;5.634;2023-12-07T11:48:32;101748.97;;;-2.37;100.00
60319;BME280;46163;52.306;5.634;2023-12-07T11:50:59;101735.63;;;-1.24;100.00
60319;BME280;46163;52.306;5.634;2023-12-07T11:53:27;101732.00;;;-0.96;100.00
60319;BME280;46163;52.306;5.634;2023-12-07T11:55:54;101737.75;;;-0.78;100.00
60319;BME280;46163;52.306;5.634;2023-12-07T11:58:20;101737.13;;;-0.69;100.00
60319;BME280;46163;52.306;5.634;2023-12-07T12:00:47;101734.63;;;-0.58;100.00
60319;BME280;46163;52.306;5.634;2023-12-07T12:03:13;101725.41;;;-0.51;100.00
60319;BME280;46163;52.306;5.634;2023-12-07T12:05:40;101714.50;;;-0.45;100.00
60319;BME280;46163;52.306;5.634;2023-12-07T12:08:06;101717.66;;;-0.65;100.00
60319;BME280;46163;52.306;5.634;2023-12-07T12:10:32;101694.50;;;-2.00;92.12
60319;BME280;46163;52.306;5.634;2023-12-07T12:13:01;101711.56;;;-3.07;98.07
60319;BME280;46163;52.306;5.634;2023-12-07T12:15:28;101695.25;;;-4.15;100.00
60319;BME280;46163;52.306;5.634;2023-12-07T12:17:56;101676.94;;;-3.97;100.00
60319;BME280;46163;52.306;5.634;2023-12-07T12:20:21;101677.16;;;-2.01;100.00
60319;BME280;46163;52.306;5.634;2023-12-07T12:22:47;101677.44;;;-1.01;100.00
60319;BME280;46163;52.306;5.634;2023-12-07T12:25:13;101670.38;;;-0.62;100.00
60319;BME280;46163;52.306;5.634;2023-12-07T12:27:40;101669.19;;;-0.45;100.00
60319;BME280;46163;52.306;5.634;2023-12-07T12:30:06;101664.81;;;-0.45;100.00
60319;BME280;46163;52.306;5.634;2023-12-07T12:32:45;101651.69;;;-0.32;100.00
60319;BME280;46163;52.306;5.634;2023-12-07T12:35:11;101651.16;;;-0.24;100.00
60319;BME280;46163;52.306;5.634;2023-12-07T12:37:47;101641.00;;;-0.29;100.00
60319;BME280;46163;52.306;5.634;2023-12-07T12:40:15;101650.81;;;-0.20;100.00
60319;BME280;46163;52.306;5.634;2023-12-07T12:42:43;101651.69;;;-2.10;89.79
60319;BME280;46163;52.306;5.634;2023-12-07T12:45:09;101666.28;;;-3.63;100.00
60319;BME280;46163;52.306;5.634;2023-12-07T12:47:39;101653.56;;;-4.13;100.00
60319;BME280;46163;52.306;5.634;2023-12-07T12:50:05;101655.75;;;-2.74;100.00